Time;durP1;ratioP1;P1;durP2;ratioP2;P2;SDS_P1;SDS_P2;PMS_P1;PMS_P2;Temp;Humidity;BMP_temperature;BMP_pressure;BME280_temperature;BME280_humidity;BME280_pressure;Samples;Min_cycle;Max_cycle;Signal;HPM_P1;HPM_P2
2022/12/29 00:00:07;;;;;;;5.30;4.20;;;;;;;;;;4957659;28;20482;-75
2022/12/29 00:03:03;;;;;;;5.00;4.60;;;;;;;;;;4954296;28;20521;-76
2022/12/29 00:05:57;;;;;;;4.70;4.40;;;;;;;;;;4951860;28;20617;-74
2022/12/29 00:08:51;;;;;;;4.63;4.33;;;;;;;;;;4952410;28;20846;-74
2022/12/29 00:11:41;;;;;;;4.30;4.00;;;;;;;;;;4955802;28;20466;-76
2022/12/29 00:17:43;;;;;;;5.27;4.80;;;;;;;;;;4949368;28;20504;-75
2022/12/29 00:36:23;;;;;;;5.27;4.87;;;;;;;;;;4958258;28;20459;-76
2022/12/29 00:45:30;;;;;;;4.97;4.57;;;;;;;;;;4965391;28;20454;-76
2022/12/29 00:49:29;;;;;;;5.60;5.00;;;;;;;;;;4961302;28;20836;-74
2022/12/29 00:51:28;;;;;;;5.33;4.93;;;;;;;;;;4949692;28;20831;-75
2022/12/29 00:54:17;;;;;;;5.97;5.40;;;;;;;;;;4953133;28;20506;-75
2022/12/29 00:57:08;;;;;;;5.60;5.10;;;;;;;;;;4959981;28;20453;-75
2022/12/29 00:59:57;;;;;;;5.63;5.23;;;;;;;;;;4962145;28;21064;-75
2022/12/29 01:02:48;;;;;;;5.70;5.20;;;;;;;;;;4964615;28;21006;-75
2022/12/29 01:05:37;;;;;;;5.63;5.20;;;;;;;;;;4956078;28;20470;-75
2022/12/29 01:08:31;;;;;;;5.43;4.93;;;;;;;;;;4958615;28;20491;-77
2022/12/29 01:11:19;;;;;;;5.60;5.10;;;;;;;;;;4956089;28;20850;-75
2022/12/29 01:14:11;;;;;;;5.50;5.10;;;;;;;;;;4956878;28;20486;-75
2022/12/29 01:17:05;;;;;;;5.40;5.00;;;;;;;;;;4959018;28;20831;-75
2022/12/29 01:19:58;;;;;;;5.60;5.20;;;;;;;;;;4958464;28;20510;-75
2022/12/29 01:22:47;;;;;;;4.93;4.53;;;;;;;;;;4958757;28;20488;-75
2022/12/29 01:25:39;;;;;;;4.80;4.40;;;;;;;;;;4964067;28;20533;-75
2022/12/29 01:28:35;;;;;;;4.97;4.57;;;;;;;;;;4959663;28;20876;-75
2022/12/29 01:31:26;;;;;;;4.83;4.50;;;;;;;;;;4964963;28;20524;-76
2022/12/29 01:34:20;;;;;;;5.70;5.20;;;;;;;;;;4961276;28;20486;-77
2022/12/29 01:37:16;;;;;;;5.60;5.03;;;;;;;;;;4960371;28;20455;-76
2022/12/29 01:40:05;;;;;;;5.10;4.70;;;;;;;;;;4960945;28;20481;-77
2022/12/29 01:42:56;;;;;;;5.60;5.17;;;;;;;;;;4940825;28;20902;-78
2022/12/29 01:45:47;;;;;;;5.70;5.30;;;;;;;;;;4961496;28;20550;-75
2022/12/29 01:48:37;;;;;;;5.40;4.93;;;;;;;;;;4952144;28;20936;-75
2022/12/29 01:51:31;;;;;;;6.27;5.77;;;;;;;;;;4953010;28;20455;-75
2022/12/29 01:54:27;;;;;;;5.77;5.37;;;;;;;;;;4959955;28;20497;-76
2022/12/29 01:57:19;;;;;;;6.10;5.60;;;;;;;;;;4959556;28;20827;-75
2022/12/29 02:00:19;;;;;;;5.77;5.27;;;;;;;;;;4956817;28;20959;-75
2022/12/29 02:03:10;;;;;;;5.77;5.37;;;;;;;;;;4960194;28;20565;-75
2022/12/29 02:06:03;;;;;;;6.10;5.70;;;;;;;;;;4949969;28;20532;-75
2022/12/29 02:08:59;;;;;;;6.77;6.27;;;;;;;;;;4953299;28;20477;-75
2022/12/29 02:11:48;;;;;;;6.30;5.80;;;;;;;;;;4957029;28;20463;-75
2022/12/29 02:14:39;;;;;;;6.40;5.90;;;;;;;;;;4960100;28;20857;-77
2022/12/29 02:17:40;;;;;;;6.87;6.27;;;;;;;;;;4958183;28;20849;-74
2022/12/29 02:20:44;;;;;;;6.60;6.10;;;;;;;;;;4947354;28;20494;-74
2022/12/29 02:23:47;;;;;;;6.27;5.77;;;;;;;;;;4948558;28;20519;-74
2022/12/29 02:26:45;;;;;;;5.97;5.50;;;;;;;;;;4956384;28;20541;-77
2022/12/29 02:29:51;;;;;;;5.53;5.13;;;;;;;;;;4951499;28;20482;-75
2022/12/29 02:32:47;;;;;;;5.20;4.80;;;;;;;;;;4952125;28;20636;-75
2022/12/29 02:35:53;;;;;;;5.90;5.40;;;;;;;;;;4945347;28;20517;-75
2022/12/29 02:38:47;;;;;;;5.77;5.37;;;;;;;;;;4947362;28;20482;-75
2022/12/29 02:41:42;;;;;;;6.10;5.70;;;;;;;;;;4954480;28;20459;-76
2022/12/29 02:44:38;;;;;;;5.87;5.37;;;;;;;;;;4958518;28;20509;-75
2022/12/29 02:47:31;;;;;;;6.00;5.50;;;;;;;;;;4960213;28;20455;-74
2022/12/29 02:50:24;;;;;;;5.80;5.20;;;;;;;;;;4956844;28;21006;-76
2022/12/29 02:54:40;;;;;;;5.07;4.67;;;;;;;;;;4951533;28;20544;-76
2022/12/29 02:56:31;;;;;;;4.73;4.43;;;;;;;;;;4967159;28;20542;-75
2022/12/29 02:59:23;;;;;;;5.80;5.27;;;;;;;;;;4955475;28;20478;-76
2022/12/29 03:02:32;;;;;;;5.43;4.77;;;;;;;;;;4959565;28;20458;-77
2022/12/29 03:05:37;;;;;;;5.50;5.10;;;;;;;;;;4958425;28;20474;-76
2022/12/29 03:08:39;;;;;;;5.20;4.80;;;;;;;;;;4957100;28;20798;-76
2022/12/29 03:17:58;;;;;;;5.20;4.80;;;;;;;;;;4956868;28;20991;-76
2022/12/29 03:20:56;;;;;;;4.50;4.20;;;;;;;;;;4962445;28;20462;-76
2022/12/29 03:23:49;;;;;;;4.73;4.33;;;;;;;;;;4957757;28;20474;-76
2022/12/29 03:26:41;;;;;;;4.70;4.30;;;;;;;;;;4963718;28;20553;-75
2022/12/29 03:29:31;;;;;;;4.77;4.37;;;;;;;;;;4959314;28;20481;-76
2022/12/29 03:32:23;;;;;;;4.50;4.20;;;;;;;;;;4962547;28;20462;-76
2022/12/29 03:35:16;;;;;;;4.70;4.30;;;;;;;;;;4963304;28;20495;-76
2022/12/29 03:38:13;;;;;;;4.87;4.50;;;;;;;;;;4954644;28;20470;-76
2022/12/29 03:41:09;;;;;;;4.50;4.20;;;;;;;;;;4967513;28;20459;-77
2022/12/29 03:43:58;;;;;;;4.40;4.10;;;;;;;;;;4971809;28;20477;-76
2022/12/29 03:46:46;;;;;;;4.77;4.47;;;;;;;;;;4962154;28;20979;-76
2022/12/29 03:49:35;;;;;;;4.73;4.33;;;;;;;;;;4959369;28;20479;-76
2022/12/29 03:52:28;;;;;;;4.13;3.93;;;;;;;;;;4961835;28;20588;-76
2022/12/29 03:55:20;;;;;;;3.80;3.60;;;;;;;;;;4964416;28;20967;-76
2022/12/29 03:58:12;;;;;;;5.00;4.50;;;;;;;;;;4967720;28;20470;-76
2022/12/29 04:01:00;;;;;;;3.60;3.40;;;;;;;;;;4953497;28;20474;-75
2022/12/29 04:03:49;;;;;;;4.13;3.83;;;;;;;;;;4959346;28;20506;-75
2022/12/29 04:06:40;;;;;;;4.60;4.20;;;;;;;;;;4964358;28;20463;-76
2022/12/29 04:09:33;;;;;;;4.07;3.77;;;;;;;;;;4959269;28;20478;-76
2022/12/29 04:12:23;;;;;;;3.77;3.47;;;;;;;;;;4967268;28;21071;-76
2022/12/29 04:15:12;;;;;;;3.67;3.37;;;;;;;;;;4958381;28;20478;-76
2022/12/29 04:18:07;;;;;;;3.23;3.03;;;;;;;;;;4961930;28;20489;-75
2022/12/29 04:21:00;;;;;;;3.67;3.37;;;;;;;;;;4958141;28;20622;-76
2022/12/29 04:23:49;;;;;;;3.57;3.37;;;;;;;;;;4962199;28;20462;-76
2022/12/29 04:26:40;;;;;;;3.20;3.00;;;;;;;;;;4972891;28;20626;-76
2022/12/29 04:29:32;;;;;;;3.33;3.13;;;;;;;;;;4958830;28;20493;-76
2022/12/29 04:32:21;;;;;;;3.17;2.97;;;;;;;;;;4959375;28;20464;-76
2022/12/29 04:35:10;;;;;;;3.23;2.93;;;;;;;;;;4964310;28;20548;-76
2022/12/29 04:37:58;;;;;;;3.17;2.97;;;;;;;;;;4965538;28;20459;-76
2022/12/29 04:40:48;;;;;;;3.10;2.90;;;;;;;;;;4974608;28;20470;-76
2022/12/29 04:43:39;;;;;;;3.03;2.83;;;;;;;;;;4957389;28;20503;-76
2022/12/29 04:46:34;;;;;;;2.90;2.70;;;;;;;;;;4963502;28;20459;-76
2022/12/29 04:49:27;;;;;;;3.00;2.80;;;;;;;;;;4955698;28;20489;-77
2022/12/29 04:52:16;;;;;;;3.30;3.07;;;;;;;;;;4955378;28;23418;-76
2022/12/29 04:55:14;;;;;;;2.70;2.50;;;;;;;;;;4964460;28;20478;-76
2022/12/29 04:58:07;;;;;;;3.70;2.90;;;;;;;;;;4956808;28;20987;-76
2022/12/29 05:00:58;;;;;;;2.50;2.40;;;;;;;;;;4959193;28;20665;-76
2022/12/29 05:03:47;;;;;;;3.00;2.80;;;;;;;;;;4957674;28;21125;-76
2022/12/29 05:06:36;;;;;;;2.73;2.53;;;;;;;;;;4957216;28;20451;-76
2022/12/29 05:09:26;;;;;;;2.60;2.47;;;;;;;;;;4955199;28;20501;-76
2022/12/29 05:12:15;;;;;;;2.83;2.63;;;;;;;;;;4961224;28;21803;-76
2022/12/29 05:15:07;;;;;;;2.50;2.30;;;;;;;;;;4959025;28;20570;-76
2022/12/29 05:17:59;;;;;;;2.73;2.53;;;;;;;;;;4966515;28;20481;-76
2022/12/29 05:20:49;;;;;;;2.60;2.50;;;;;;;;;;4958329;28;20555;-76
2022/12/29 05:23:46;;;;;;;2.60;2.40;;;;;;;;;;4966473;28;20967;-76
2022/12/29 05:26:35;;;;;;;2.70;2.50;;;;;;;;;;4957955;28;20458;-76
2022/12/29 05:29:25;;;;;;;2.80;2.60;;;;;;;;;;4968024;28;20968;-76
2022/12/29 05:32:20;;;;;;;3.00;2.80;;;;;;;;;;4962481;28;20450;-76
2022/12/29 05:35:12;;;;;;;2.93;2.73;;;;;;;;;;4978955;23;20501;-73
2022/12/29 05:38:10;;;;;;;4.63;3.17;;;;;;;;;;4981909;28;20489;-73
2022/12/29 05:40:59;;;;;;;3.10;2.90;;;;;;;;;;4973931;28;20465;-73
2022/12/29 05:43:50;;;;;;;3.20;3.00;;;;;;;;;;4970580;28;20533;-73
2022/12/29 05:46:44;;;;;;;3.60;3.40;;;;;;;;;;4959948;28;20892;-73
2022/12/29 05:49:35;;;;;;;3.60;3.30;;;;;;;;;;4958782;28;20585;-72
2022/12/29 05:52:26;;;;;;;3.40;3.20;;;;;;;;;;4957215;28;20462;-73
2022/12/29 05:55:17;;;;;;;3.07;2.87;;;;;;;;;;4963640;28;20486;-73
2022/12/29 05:58:06;;;;;;;2.90;2.70;;;;;;;;;;4958322;28;21100;-73
2022/12/29 06:00:56;;;;;;;2.80;2.60;;;;;;;;;;4960622;28;20462;-72
2022/12/29 06:03:44;;;;;;;3.07;2.77;;;;;;;;;;4950079;28;20984;-73
2022/12/29 06:06:43;;;;;;;2.60;2.40;;;;;;;;;;4958894;28;20454;-73
2022/12/29 06:09:33;;;;;;;2.53;2.43;;;;;;;;;;4959581;28;20549;-73
2022/12/29 06:12:26;;;;;;;2.90;2.60;;;;;;;;;;4955463;28;21054;-72
2022/12/29 06:15:15;;;;;;;2.37;2.17;;;;;;;;;;4956944;28;20638;-72
2022/12/29 06:18:04;;;;;;;2.43;2.33;;;;;;;;;;4951945;28;20945;-72
2022/12/29 06:20:53;;;;;;;2.33;2.23;;;;;;;;;;4952064;28;20485;-72
2022/12/29 06:23:47;;;;;;;2.37;2.27;;;;;;;;;;4957286;28;20465;-73
2022/12/29 06:26:40;;;;;;;2.60;2.40;;;;;;;;;;4963505;28;20450;-72
2022/12/29 06:29:31;;;;;;;3.70;2.50;;;;;;;;;;4953876;28;20888;-72
2022/12/29 06:32:22;;;;;;;2.47;2.27;;;;;;;;;;4956871;28;20459;-73
2022/12/29 06:35:13;;;;;;;3.77;2.37;;;;;;;;;;4956810;28;20509;-73
2022/12/29 06:38:03;;;;;;;2.40;2.20;;;;;;;;;;4955490;28;20462;-71
2022/12/29 06:41:00;;;;;;;2.50;2.27;;;;;;;;;;4954528;28;20859;-73
2022/12/29 06:43:48;;;;;;;4.40;2.50;;;;;;;;;;4954719;28;20462;-72
2022/12/29 06:46:47;;;;;;;2.63;2.10;;;;;;;;;;4957111;28;20463;-73
2022/12/29 06:49:38;;;;;;;2.33;2.17;;;;;;;;;;4949250;28;20483;-73
2022/12/29 06:52:28;;;;;;;2.10;2.00;;;;;;;;;;4951299;28;20459;-72
2022/12/29 06:55:23;;;;;;;2.13;2.03;;;;;;;;;;4945607;28;20479;-73
2022/12/29 06:58:19;;;;;;;2.00;1.90;;;;;;;;;;4946782;28;21003;-73
2022/12/29 07:01:10;;;;;;;2.53;2.10;;;;;;;;;;4938147;28;20460;-74
2022/12/29 07:04:01;;;;;;;2.20;2.10;;;;;;;;;;4953175;28;20474;-72
2022/12/29 07:06:49;;;;;;;2.27;2.10;;;;;;;;;;4961003;28;20470;-73
2022/12/29 07:09:38;;;;;;;2.57;2.17;;;;;;;;;;4952481;28;20569;-73
2022/12/29 07:12:27;;;;;;;2.00;1.90;;;;;;;;;;4945504;28;21005;-73
2022/12/29 07:15:17;;;;;;;2.67;2.40;;;;;;;;;;4953194;28;20478;-74
2022/12/29 07:18:10;;;;;;;2.37;2.20;;;;;;;;;;4953953;28;20463;-73
2022/12/29 07:21:00;;;;;;;2.50;2.40;;;;;;;;;;4962355;28;20469;-73
2022/12/29 07:23:50;;;;;;;2.80;2.27;;;;;;;;;;4956628;28;20558;-74
2022/12/29 07:26:42;;;;;;;2.43;2.23;;;;;;;;;;4956282;28;20459;-73
2022/12/29 07:29:35;;;;;;;2.60;2.40;;;;;;;;;;4955468;28;20889;-73
2022/12/29 07:32:27;;;;;;;2.80;2.60;;;;;;;;;;4950210;28;20470;-73
2022/12/29 07:35:23;;;;;;;2.40;2.30;;;;;;;;;;4950362;28;20487;-73
2022/12/29 07:38:16;;;;;;;2.77;2.57;;;;;;;;;;4954212;28;20486;-73
2022/12/29 07:41:05;;;;;;;2.70;2.60;;;;;;;;;;4952806;28;20513;-72
2022/12/29 07:43:56;;;;;;;3.20;2.60;;;;;;;;;;4939198;28;20454;-74
2022/12/29 07:46:44;;;;;;;2.80;2.60;;;;;;;;;;4951158;28;20455;-73
2022/12/29 07:49:47;;;;;;;2.97;2.77;;;;;;;;;;4950585;28;20845;-74
2022/12/29 07:52:35;;;;;;;4.10;2.73;;;;;;;;;;4953786;28;20469;-73
2022/12/29 07:55:28;;;;;;;3.80;2.50;;;;;;;;;;4955195;28;20493;-73
2022/12/29 07:58:18;;;;;;;3.10;2.90;;;;;;;;;;4941794;28;20491;-72
2022/12/29 08:01:08;;;;;;;2.53;2.43;;;;;;;;;;4943604;28;20485;-74
2022/12/29 08:03:58;;;;;;;2.80;2.63;;;;;;;;;;4945352;28;20458;-73
2022/12/29 08:06:46;;;;;;;3.23;2.90;;;;;;;;;;4944018;28;20473;-73
2022/12/29 08:09:35;;;;;;;2.97;2.67;;;;;;;;;;4950313;28;20478;-73
2022/12/29 08:12:25;;;;;;;3.03;2.77;;;;;;;;;;4927834;28;20466;-72
2022/12/29 08:15:14;;;;;;;2.23;2.13;;;;;;;;;;4952168;28;20857;-71
2022/12/29 08:18:03;;;;;;;2.87;2.10;;;;;;;;;;4952866;28;20477;-72
2022/12/29 08:20:51;;;;;;;2.07;1.97;;;;;;;;;;4948735;28;20473;-71
2022/12/29 08:23:43;;;;;;;2.20;2.10;;;;;;;;;;4931816;28;20473;-73
2022/12/29 08:26:32;;;;;;;2.20;2.00;;;;;;;;;;4958274;28;20997;-73
2022/12/29 08:29:22;;;;;;;2.10;2.00;;;;;;;;;;4951527;28;20525;-73
2022/12/29 08:32:11;;;;;;;2.57;2.30;;;;;;;;;;4950796;28;20478;-73
2022/12/29 08:35:00;;;;;;;2.50;2.30;;;;;;;;;;4952218;28;21874;-73
2022/12/29 08:37:48;;;;;;;2.50;2.40;;;;;;;;;;4932179;28;20478;-73
2022/12/29 08:40:37;;;;;;;2.20;2.10;;;;;;;;;;4948162;28;21617;-73
2022/12/29 08:43:26;;;;;;;2.50;2.30;;;;;;;;;;4958803;28;21151;-73
2022/12/29 08:46:16;;;;;;;2.27;2.17;;;;;;;;;;4954002;28;20478;-72
2022/12/29 08:49:04;;;;;;;2.60;2.40;;;;;;;;;;4953360;28;20474;-72
2022/12/29 08:51:53;;;;;;;2.30;2.10;;;;;;;;;;4956197;28;20474;-72
2022/12/29 08:54:42;;;;;;;2.23;2.13;;;;;;;;;;4953992;28;20487;-73
2022/12/29 08:57:30;;;;;;;2.03;1.93;;;;;;;;;;4953724;28;20482;-72
2022/12/29 09:00:20;;;;;;;1.90;1.80;;;;;;;;;;4943520;28;20474;-70
2022/12/29 09:03:10;;;;;;;3.30;2.13;;;;;;;;;;4952448;28;20454;-73
2022/12/29 09:05:58;;;;;;;2.70;1.80;;;;;;;;;;4943792;28;21017;-72
2022/12/29 09:08:47;;;;;;;2.47;2.27;;;;;;;;;;4943615;28;20623;-72
2022/12/29 09:11:36;;;;;;;1.60;1.50;;;;;;;;;;4941474;28;20869;-72
2022/12/29 09:14:24;;;;;;;1.50;1.40;;;;;;;;;;4937875;28;20921;-72
2022/12/29 09:20:23;;;;;;;2.80;1.50;;;;;;;;;;4952012;28;20478;-73
2022/12/29 09:23:12;;;;;;;1.83;1.50;;;;;;;;;;4950118;28;20471;-73
2022/12/29 09:26:01;;;;;;;1.57;1.30;;;;;;;;;;4948527;28;20542;-73
2022/12/29 09:28:49;;;;;;;4.87;1.73;;;;;;;;;;4946959;28;20515;-72
2022/12/29 09:31:38;;;;;;;2.70;1.20;;;;;;;;;;4952548;28;20815;-72
2022/12/29 09:34:27;;;;;;;1.70;1.30;;;;;;;;;;4961096;28;20474;-72
2022/12/29 09:37:17;;;;;;;3.07;1.37;;;;;;;;;;4960512;28;20822;-72
2022/12/29 09:40:06;;;;;;;4.17;1.80;;;;;;;;;;4961548;28;20487;-72
2022/12/29 09:42:58;;;;;;;2.47;1.43;;;;;;;;;;4959534;28;20454;-73
2022/12/29 09:45:48;;;;;;;2.30;1.30;;;;;;;;;;4960535;28;20684;-73
2022/12/29 09:48:41;;;;;;;2.20;1.20;;;;;;;;;;4960618;28;20483;-73
2022/12/29 09:51:30;;;;;;;1.60;1.50;;;;;;;;;;4952192;28;20463;-73
2022/12/29 09:54:25;;;;;;;2.10;1.50;;;;;;;;;;4952389;28;20598;-73
2022/12/29 09:57:17;;;;;;;2.90;1.53;;;;;;;;;;4951428;28;20515;-72
2022/12/29 10:00:08;;;;;;;2.50;1.10;;;;;;;;;;4949184;28;20474;-73
2022/12/29 10:03:01;;;;;;;2.20;1.20;;;;;;;;;;4947348;28;21779;-73
2022/12/29 10:05:51;;;;;;;2.50;1.40;;;;;;;;;;4956029;28;21013;-74
2022/12/29 10:08:42;;;;;;;2.87;1.40;;;;;;;;;;4956638;28;20610;-73
2022/12/29 10:11:40;;;;;;;3.10;1.40;;;;;;;;;;4945450;28;21051;-73
2022/12/29 10:14:34;;;;;;;2.20;1.30;;;;;;;;;;4952683;28;20617;-71
2022/12/29 10:17:27;;;;;;;3.90;1.63;;;;;;;;;;4938058;28;21002;-71
2022/12/29 10:20:26;;;;;;;2.90;1.20;;;;;;;;;;4946529;28;21028;-73
2022/12/29 10:23:21;;;;;;;9.60;1.90;;;;;;;;;;4955854;28;20971;-73
2022/12/29 10:26:13;;;;;;;3.07;1.60;;;;;;;;;;4942871;28;20470;-73
2022/12/29 10:29:04;;;;;;;4.47;1.90;;;;;;;;;;4947172;28;20474;-73
2022/12/29 10:31:57;;;;;;;2.90;1.33;;;;;;;;;;4950821;28;21081;-72
2022/12/29 10:34:48;;;;;;;2.33;1.40;;;;;;;;;;4953989;28;21380;-73
2022/12/29 10:37:42;;;;;;;2.60;1.43;;;;;;;;;;4952155;28;20479;-73
2022/12/29 10:40:33;;;;;;;2.37;1.53;;;;;;;;;;4943134;28;20867;-73
2022/12/29 10:43:26;;;;;;;4.17;1.30;;;;;;;;;;4952196;28;20843;-73
2022/12/29 10:46:17;;;;;;;2.80;1.30;;;;;;;;;;4953201;28;20467;-73
2022/12/29 10:49:06;;;;;;;3.33;1.70;;;;;;;;;;4950885;28;20490;-73
2022/12/29 10:51:56;;;;;;;3.00;1.60;;;;;;;;;;4963415;28;20983;-73
2022/12/29 10:54:50;;;;;;;3.40;1.30;;;;;;;;;;4955242;28;20487;-73
2022/12/29 10:57:40;;;;;;;3.20;1.37;;;;;;;;;;4958548;28;20541;-72
2022/12/29 11:00:29;;;;;;;2.87;1.53;;;;;;;;;;4956623;28;20490;-73
2022/12/29 11:03:51;;;;;;;4.00;1.40;;;;;;;;;;4949434;28;20534;-73
2022/12/29 11:06:41;;;;;;;5.70;1.40;;;;;;;;;;4910854;29;20833;-72
2022/12/29 11:09:30;;;;;;;3.63;1.60;;;;;;;;;;4918827;29;20481;-73
2022/12/29 11:12:31;;;;;;;2.13;1.30;;;;;;;;;;4952383;28;20602;-72
2022/12/29 11:15:20;;;;;;;2.57;1.50;;;;;;;;;;4942630;28;20877;-73
2022/12/29 11:18:20;;;;;;;2.40;1.70;;;;;;;;;;4958682;28;20601;-72
2022/12/29 11:21:24;;;;;;;3.97;1.50;;;;;;;;;;4955183;28;20819;-72
2022/12/29 11:24:21;;;;;;;2.00;1.20;;;;;;;;;;4965916;28;20466;-73
2022/12/29 11:27:14;;;;;;;4.37;1.20;;;;;;;;;;4952470;28;20469;-73
2022/12/29 11:30:03;;;;;;;2.37;1.40;;;;;;;;;;4955321;28;20934;-73
2022/12/29 11:32:53;;;;;;;2.93;0.90;;;;;;;;;;4955805;28;20996;-74
2022/12/29 11:35:43;;;;;;;2.40;1.10;;;;;;;;;;4955718;28;20510;-75
2022/12/29 11:38:35;;;;;;;1.73;1.10;;;;;;;;;;4963877;23;20498;-76
2022/12/29 11:41:26;;;;;;;2.60;1.47;;;;;;;;;;4947568;28;20893;-77
2022/12/29 11:44:15;;;;;;;1.60;1.27;;;;;;;;;;4950603;28;20507;-78
2022/12/29 11:47:04;;;;;;;3.27;1.30;;;;;;;;;;4954128;28;20763;-75
2022/12/29 11:49:55;;;;;;;1.60;0.83;;;;;;;;;;4954312;28;20846;-76
2022/12/29 11:52:44;;;;;;;1.50;1.20;;;;;;;;;;4964782;28;20461;-77
2022/12/29 11:55:33;;;;;;;2.00;1.00;;;;;;;;;;4966949;28;20477;-79
2022/12/29 11:58:32;;;;;;;2.03;1.10;;;;;;;;;;4965970;28;20994;-76
2022/12/29 12:01:25;;;;;;;3.30;1.10;;;;;;;;;;4956351;28;20979;-77
2022/12/29 12:04:15;;;;;;;1.57;1.30;;;;;;;;;;4962158;28;20825;-77
2022/12/29 12:07:09;;;;;;;2.50;1.30;;;;;;;;;;4946401;28;20454;-77
2022/12/29 12:10:02;;;;;;;2.87;1.20;;;;;;;;;;4936307;28;20509;-78
2022/12/29 12:13:00;;;;;;;3.23;1.50;;;;;;;;;;4936843;28;20529;-75
2022/12/29 12:15:54;;;;;;;2.27;1.37;;;;;;;;;;4932243;28;20452;-74
2022/12/29 12:18:49;;;;;;;3.17;1.20;;;;;;;;;;4947711;28;20549;-73
2022/12/29 12:21:40;;;;;;;2.17;1.00;;;;;;;;;;4937905;28;20558;-72
2022/12/29 12:24:38;;;;;;;5.20;1.30;;;;;;;;;;4952020;28;20477;-73
2022/12/29 12:27:28;;;;;;;2.90;1.23;;;;;;;;;;4944579;28;20474;-73
2022/12/29 12:30:18;;;;;;;2.67;1.20;;;;;;;;;;4940502;28;20490;-75
2022/12/29 12:33:16;;;;;;;2.90;1.30;;;;;;;;;;4938445;28;20502;-74
2022/12/29 12:36:22;;;;;;;2.27;1.50;;;;;;;;;;4954534;28;20769;-72
2022/12/29 12:39:13;;;;;;;3.20;1.33;;;;;;;;;;4944322;28;20697;-72
2022/12/29 12:42:07;;;;;;;3.70;1.53;;;;;;;;;;4956018;28;20605;-73
2022/12/29 12:45:00;;;;;;;2.80;1.60;;;;;;;;;;4950902;28;20452;-73
2022/12/29 12:47:54;;;;;;;3.90;1.60;;;;;;;;;;4950086;28;20532;-73
2022/12/29 12:50:54;;;;;;;3.93;1.30;;;;;;;;;;4954118;28;20681;-73
2022/12/29 12:53:48;;;;;;;3.37;1.50;;;;;;;;;;4948055;28;20510;-73
2022/12/29 12:56:48;;;;;;;3.20;1.30;;;;;;;;;;4944187;28;21197;-74
2022/12/29 12:59:45;;;;;;;4.23;1.73;;;;;;;;;;4943319;28;20626;-73
2022/12/29 13:02:38;;;;;;;4.93;2.03;;;;;;;;;;4950309;28;21961;-72
2022/12/29 13:05:39;;;;;;;5.90;1.53;;;;;;;;;;4945144;28;20466;-72
2022/12/29 13:08:42;;;;;;;3.00;1.20;;;;;;;;;;4937979;28;20493;-73
2022/12/29 13:11:39;;;;;;;4.03;1.80;;;;;;;;;;4947769;28;20535;-73
2022/12/29 13:14:36;;;;;;;2.43;1.60;;;;;;;;;;4952338;28;20455;-72
2022/12/29 13:17:28;;;;;;;3.37;1.40;;;;;;;;;;4956364;28;20637;-74
2022/12/29 13:20:21;;;;;;;4.00;1.60;;;;;;;;;;4960295;28;20487;-73
2022/12/29 13:23:12;;;;;;;2.77;1.40;;;;;;;;;;4956295;28;20892;-73
2022/12/29 13:26:06;;;;;;;2.83;1.53;;;;;;;;;;4950012;28;20505;-73
2022/12/29 13:28:57;;;;;;;3.27;1.17;;;;;;;;;;4955285;28;21062;-73
2022/12/29 13:31:50;;;;;;;4.13;1.70;;;;;;;;;;4952706;28;20838;-72
2022/12/29 13:34:44;;;;;;;2.13;1.53;;;;;;;;;;4948451;28;20454;-73
2022/12/29 13:37:37;;;;;;;4.03;1.73;;;;;;;;;;4941994;28;20480;-74
2022/12/29 13:40:27;;;;;;;2.00;1.37;;;;;;;;;;4952629;28;20487;-74
2022/12/29 13:43:17;;;;;;;3.23;1.30;;;;;;;;;;4940430;28;20468;-72
2022/12/29 13:46:09;;;;;;;3.37;1.70;;;;;;;;;;4950442;28;20477;-75
2022/12/29 13:49:00;;;;;;;2.63;1.37;;;;;;;;;;4942388;28;21023;-76
2022/12/29 13:51:50;;;;;;;2.40;1.30;;;;;;;;;;4944801;28;20513;-77
2022/12/29 13:54:40;;;;;;;3.43;1.30;;;;;;;;;;4946746;28;20455;-74
2022/12/29 13:57:33;;;;;;;3.67;1.40;;;;;;;;;;4949166;28;20985;-73
2022/12/29 14:00:24;;;;;;;1.87;1.40;;;;;;;;;;4942509;28;20486;-73
2022/12/29 14:03:21;;;;;;;3.10;1.60;;;;;;;;;;4950272;28;20940;-73
2022/12/29 14:06:21;;;;;;;5.80;1.30;;;;;;;;;;4946506;28;20462;-75
2022/12/29 14:09:24;;;;;;;3.67;1.03;;;;;;;;;;4946534;28;20847;-75
2022/12/29 14:12:26;;;;;;;5.10;1.20;;;;;;;;;;4940293;28;21774;-74
2022/12/29 14:15:20;;;;;;;1.70;1.00;;;;;;;;;;4940075;28;20463;-75
2022/12/29 14:18:15;;;;;;;3.93;2.40;;;;;;;;;;4943751;28;20617;-75
2022/12/29 14:21:06;;;;;;;3.33;1.20;;;;;;;;;;4949687;28;20479;-75
2022/12/29 14:23:55;;;;;;;3.00;1.10;;;;;;;;;;4949083;28;20549;-73
2022/12/29 14:26:44;;;;;;;4.20;1.27;;;;;;;;;;4948594;28;20471;-73
2022/12/29 14:29:51;;;;;;;1.70;1.03;;;;;;;;;;4946192;28;20479;-76
2022/12/29 14:33:00;;;;;;;4.87;1.10;;;;;;;;;;4941298;28;20465;-73
2022/12/29 14:35:52;;;;;;;3.03;0.97;;;;;;;;;;4952472;28;20494;-73
2022/12/29 14:38:46;;;;;;;5.87;1.43;;;;;;;;;;4940379;28;20487;-74
2022/12/29 14:41:39;;;;;;;3.00;1.30;;;;;;;;;;4945841;28;20617;-73
2022/12/29 14:44:28;;;;;;;1.47;1.10;;;;;;;;;;4938031;28;20466;-74
2022/12/29 14:47:19;;;;;;;2.70;1.00;;;;;;;;;;4937174;28;20467;-73
2022/12/29 14:50:10;;;;;;;2.57;1.10;;;;;;;;;;4947911;28;20486;-73
2022/12/29 14:53:01;;;;;;;2.40;1.30;;;;;;;;;;4933733;28;20478;-75
2022/12/29 14:55:56;;;;;;;4.93;1.30;;;;;;;;;;4948657;28;20554;-75
2022/12/29 14:58:47;;;;;;;3.53;1.50;;;;;;;;;;4948876;28;21050;-73
2022/12/29 15:01:40;;;;;;;3.67;1.37;;;;;;;;;;4950500;28;20477;-73
2022/12/29 15:04:32;;;;;;;1.10;1.00;;;;;;;;;;4942240;28;20467;-76
2022/12/29 15:07:22;;;;;;;3.20;1.40;;;;;;;;;;4948260;28;20450;-74
2022/12/29 15:10:16;;;;;;;2.63;1.13;;;;;;;;;;4942373;28;20467;-73
2022/12/29 15:13:05;;;;;;;4.30;1.40;;;;;;;;;;4947063;28;20519;-73
2022/12/29 15:15:55;;;;;;;3.10;1.30;;;;;;;;;;4950863;28;20462;-76
2022/12/29 15:18:44;;;;;;;5.53;2.07;;;;;;;;;;4951145;28;20484;-77
2022/12/29 15:21:34;;;;;;;3.43;1.30;;;;;;;;;;4952139;28;20514;-74
2022/12/29 15:24:24;;;;;;;6.53;1.73;;;;;;;;;;4943925;28;21167;-72
2022/12/29 15:27:18;;;;;;;3.53;2.60;;;;;;;;;;4958651;28;20458;-74
2022/12/29 15:30:14;;;;;;;5.20;1.70;;;;;;;;;;4951063;28;20916;-73
2022/12/29 15:33:18;;;;;;;3.90;1.57;;;;;;;;;;4959554;28;20454;-75
2022/12/29 15:36:12;;;;;;;4.30;2.10;;;;;;;;;;4949837;28;20856;-74
2022/12/29 15:39:00;;;;;;;4.20;1.87;;;;;;;;;;4960195;28;20495;-75
2022/12/29 15:42:00;;;;;;;4.40;2.20;;;;;;;;;;4959997;28;20478;-74
2022/12/29 15:44:50;;;;;;;3.90;1.70;;;;;;;;;;4960131;28;20512;-76
2022/12/29 15:47:48;;;;;;;5.70;2.27;;;;;;;;;;4941727;28;20446;-72
2022/12/29 15:50:38;;;;;;;4.30;1.77;;;;;;;;;;4960960;28;20534;-75
2022/12/29 15:53:29;;;;;;;4.43;1.90;;;;;;;;;;4946915;28;20463;-73
2022/12/29 15:56:17;;;;;;;2.47;1.70;;;;;;;;;;4947031;28;20461;-74
2022/12/29 15:59:06;;;;;;;3.47;1.53;;;;;;;;;;4958612;28;20720;-74
2022/12/29 16:01:57;;;;;;;5.07;1.70;;;;;;;;;;4944194;28;20914;-76
2022/12/29 16:04:46;;;;;;;2.30;1.67;;;;;;;;;;4949735;28;20504;-74
2022/12/29 16:07:56;;;;;;;4.30;2.43;;;;;;;;;;4953972;28;20472;-75
2022/12/29 16:10:45;;;;;;;2.83;1.47;;;;;;;;;;4950216;28;20518;-74
2022/12/29 16:13:36;;;;;;;3.07;2.10;;;;;;;;;;4945348;28;20455;-74
2022/12/29 16:16:29;;;;;;;5.73;2.23;;;;;;;;;;4947029;28;20554;-74
2022/12/29 16:19:23;;;;;;;5.13;1.83;;;;;;;;;;4952233;28;20613;-73
2022/12/29 16:22:12;;;;;;;3.30;2.17;;;;;;;;;;4940120;28;20484;-72
2022/12/29 16:25:03;;;;;;;3.93;2.03;;;;;;;;;;4945623;28;20821;-72
2022/12/29 16:27:53;;;;;;;3.93;2.37;;;;;;;;;;4958851;28;20509;-73
2022/12/29 16:30:42;;;;;;;3.70;2.20;;;;;;;;;;4881373;28;21070;-74
2022/12/29 16:33:54;;;;;;;3.63;3.03;;;;;;;;;;5058606;27;20573;-73
2022/12/29 16:36:56;;;;;;;4.67;3.13;;;;;;;;;;5060222;28;20494;-73
2022/12/29 16:39:45;;;;;;;5.73;3.00;;;;;;;;;;5059642;28;21019;-73
2022/12/29 16:42:37;;;;;;;3.83;2.37;;;;;;;;;;5015408;28;20571;-77
2022/12/29 16:45:56;;;;;;;6.17;3.37;;;;;;;;;;5028048;28;20448;-74
2022/12/29 16:48:48;;;;;;;4.73;2.67;;;;;;;;;;5026494;28;20475;-75
2022/12/29 16:51:40;;;;;;;5.83;2.90;;;;;;;;;;5013640;28;20479;-77
2022/12/29 16:54:32;;;;;;;6.13;3.10;;;;;;;;;;5027256;28;20518;-74
2022/12/29 16:57:25;;;;;;;5.73;3.30;;;;;;;;;;5027603;28;20457;-77
2022/12/29 17:00:19;;;;;;;5.30;3.20;;;;;;;;;;5024227;28;20457;-75
2022/12/29 17:03:08;;;;;;;5.70;2.80;;;;;;;;;;5028793;28;20492;-75
2022/12/29 17:05:56;;;;;;;6.67;3.13;;;;;;;;;;5026685;28;20455;-76
2022/12/29 17:08:47;;;;;;;4.33;2.90;;;;;;;;;;5018613;28;20865;-76
2022/12/29 17:11:55;;;;;;;3.87;2.80;;;;;;;;;;5028514;28;20598;-73
2022/12/29 17:14:55;;;;;;;4.87;2.93;;;;;;;;;;5027795;28;21685;-73
2022/12/29 17:17:44;;;;;;;8.13;3.10;;;;;;;;;;5021111;28;21024;-73
2022/12/29 17:20:33;;;;;;;4.67;2.80;;;;;;;;;;5080738;28;22493;-75
2022/12/29 17:23:22;;;;;;;4.70;2.67;;;;;;;;;;5079908;28;20863;-75
2022/12/29 17:26:15;;;;;;;4.00;2.80;;;;;;;;;;5089277;28;20471;-75
2022/12/29 17:29:04;;;;;;;4.70;3.17;;;;;;;;;;5091042;28;21208;-74
2022/12/29 17:31:54;;;;;;;4.10;2.87;;;;;;;;;;5086275;28;20576;-74
2022/12/29 17:34:42;;;;;;;4.93;2.80;;;;;;;;;;5089495;28;20484;-74
2022/12/29 17:37:35;;;;;;;5.93;3.17;;;;;;;;;;5093741;28;20461;-73
2022/12/29 17:40:26;;;;;;;7.53;3.83;;;;;;;;;;5084190;28;20943;-74
2022/12/29 17:43:16;;;;;;;5.90;3.70;;;;;;;;;;5086919;28;20825;-73
2022/12/29 17:46:06;;;;;;;5.27;3.40;;;;;;;;;;5077646;28;20450;-73
2022/12/29 17:48:55;;;;;;;9.13;3.67;;;;;;;;;;5063372;28;20857;-73